createdAt,value
2022-12-23T00:01:34.241Z,40.17
2022-12-23T00:04:00.866Z,39.97
2022-12-23T00:06:27.767Z,43.97
2022-12-23T00:09:00.434Z,46.00
2022-12-23T00:11:28.879Z,51.55
2022-12-23T00:14:20.418Z,45.88
2022-12-23T00:16:48.056Z,51.80
2022-12-23T00:19:14.647Z,43.00
2022-12-23T00:21:41.226Z,47.00
2022-12-23T00:24:07.886Z,47.35
2022-12-23T00:26:34.534Z,47.13
2022-12-23T00:29:01.080Z,44.50
2022-12-23T00:31:27.713Z,49.40
2022-12-23T00:33:54.503Z,59.05
2022-12-23T00:36:27.755Z,47.75
2022-12-23T00:39:14.176Z,40.92
2022-12-23T00:41:59.412Z,52.92
2022-12-23T00:44:25.954Z,51.63
2022-12-23T00:46:52.542Z,47.97
2022-12-23T00:49:38.935Z,48.08
2022-12-23T00:52:07.634Z,49.97
2022-12-23T00:54:34.416Z,46.67
2022-12-23T00:57:01.668Z,48.50
2022-12-23T00:59:28.792Z,48.17
2022-12-23T01:02:14.083Z,49.30
2022-12-23T01:07:26.091Z,48.43
2022-12-23T01:09:52.665Z,53.55
2022-12-23T01:12:19.293Z,45.72
2022-12-23T01:14:46.001Z,40.80
2022-12-23T01:17:12.611Z,49.75
2022-12-23T01:19:39.533Z,45.58
2022-12-23T01:22:06.105Z,39.67
2022-12-23T01:24:33.203Z,45.33
2022-12-23T01:27:00.112Z,43.80
2022-12-23T01:29:28.911Z,41.13
2022-12-23T01:31:55.734Z,43.33
2022-12-23T01:34:22.605Z,39.15
2022-12-23T01:36:49.205Z,38.95
2022-12-23T01:39:15.871Z,41.65
2022-12-23T01:42:01.129Z,33.97
2022-12-23T01:47:17.180Z,39.72
2022-12-23T01:49:43.961Z,44.70
2022-12-23T01:52:12.228Z,38.90
2022-12-23T01:54:39.822Z,39.65
2022-12-23T01:57:06.592Z,34.97
2022-12-23T01:59:52.367Z,32.13
2022-12-23T02:02:38.211Z,35.90
2022-12-23T02:05:05.198Z,38.58
2022-12-23T02:07:50.824Z,35.00
2022-12-23T02:10:17.512Z,35.40
2022-12-23T02:13:12.015Z,30.73
2022-12-23T02:16:09.442Z,33.10
2022-12-23T02:18:54.465Z,34.60
2022-12-23T02:21:48.245Z,30.50
2022-12-23T02:24:49.100Z,28.67
2022-12-23T02:27:24.165Z,31.38
2022-12-23T02:30:06.068Z,31.75
2022-12-23T02:33:29.757Z,32.83
2022-12-23T02:36:06.867Z,32.60
2022-12-23T02:38:56.681Z,31.80
2022-12-23T02:41:33.933Z,35.85
2022-12-23T02:44:08.237Z,33.70
2022-12-23T02:46:41.818Z,33.33
2022-12-23T02:49:13.407Z,35.55
2022-12-23T02:51:46.993Z,37.05
2022-12-23T02:54:20.889Z,39.10
2022-12-23T02:56:51.236Z,37.35
2022-12-23T02:59:24.150Z,33.50
2022-12-23T03:01:52.492Z,36.67
2022-12-23T03:04:19.292Z,32.53
2022-12-23T03:06:49.997Z,35.90
2022-12-23T03:09:33.121Z,36.97
2022-12-23T03:12:10.232Z,38.00
2022-12-23T03:14:50.556Z,38.00
2022-12-23T03:17:43.160Z,33.70
2022-12-23T03:20:38.826Z,33.30
2022-12-23T03:23:19.132Z,34.08
2022-12-23T03:25:57.647Z,36.80
2022-12-23T03:28:36.064Z,36.00
2022-12-23T03:31:07.822Z,36.40
2022-12-23T03:33:39.653Z,37.67
2022-12-23T03:36:13.501Z,34.20
2022-12-23T03:38:43.390Z,36.78
2022-12-23T03:41:16.315Z,36.50
2022-12-23T03:43:51.239Z,36.28
2022-12-23T03:46:29.173Z,35.20
2022-12-23T03:49:01.490Z,37.88
2022-12-23T03:51:39.647Z,42.60
2022-12-23T03:54:15.197Z,35.50
2022-12-23T03:56:49.526Z,42.75
2022-12-23T03:59:21.833Z,37.50
2022-12-23T04:02:06.966Z,39.17
2022-12-23T04:05:04.360Z,38.67
2022-12-23T04:07:37.112Z,44.40
2022-12-23T04:10:04.578Z,44.58
2022-12-23T04:12:31.891Z,44.75
2022-12-23T04:14:58.541Z,38.97
2022-12-23T04:17:25.125Z,38.85
2022-12-23T04:19:52.987Z,36.75
2022-12-23T04:22:19.564Z,36.80
2022-12-23T04:24:46.056Z,32.30
2022-12-23T04:27:15.049Z,34.25
2022-12-23T04:29:42.865Z,30.10
2022-12-23T04:32:09.670Z,35.45
2022-12-23T04:34:36.488Z,36.53
2022-12-23T04:37:03.073Z,33.58
2022-12-23T04:39:29.634Z,32.63
2022-12-23T04:41:56.313Z,36.72
2022-12-23T04:44:22.908Z,33.53
2022-12-23T04:46:49.555Z,37.95
2022-12-23T04:49:16.217Z,39.10
2022-12-23T04:51:42.716Z,36.80
2022-12-23T04:54:09.316Z,37.80
2022-12-23T04:56:35.940Z,36.22
2022-12-23T04:59:04.389Z,44.38
2022-12-23T05:01:31.192Z,47.10
2022-12-23T05:03:58.026Z,40.72
2022-12-23T05:06:24.550Z,50.20
2022-12-23T05:08:51.057Z,45.47
2022-12-23T05:11:17.625Z,41.92
2022-12-23T05:13:44.326Z,44.63
2022-12-23T05:16:10.901Z,38.22
2022-12-23T05:18:37.479Z,47.70
2022-12-23T05:21:04.396Z,37.63
2022-12-23T05:23:30.996Z,37.35
2022-12-23T05:25:57.575Z,41.45
2022-12-23T05:28:24.291Z,45.85
2022-12-23T05:31:01.124Z,41.45
2022-12-23T05:33:28.492Z,41.70
2022-12-23T05:35:55.534Z,42.58
2022-12-23T05:38:22.340Z,38.63
2022-12-23T05:40:49.181Z,46.40
2022-12-23T05:43:16.463Z,41.95
2022-12-23T05:45:43.129Z,41.05
2022-12-23T05:48:10.238Z,38.50
2022-12-23T05:50:37.751Z,40.67
2022-12-23T05:53:04.857Z,40.72
2022-12-23T05:55:31.754Z,40.40
2022-12-23T05:57:58.589Z,36.38
2022-12-23T06:00:25.990Z,40.45
2022-12-23T06:02:54.131Z,42.97
2022-12-23T06:05:21.272Z,35.90
2022-12-23T06:07:51.021Z,42.78
2022-12-23T06:10:17.771Z,43.03
2022-12-23T06:12:44.349Z,36.35
2022-12-23T06:15:11.591Z,42.65
2022-12-23T06:17:38.314Z,39.45
2022-12-23T06:20:05.680Z,40.03
2022-12-23T06:22:32.249Z,42.72
2022-12-23T06:24:58.834Z,41.25
2022-12-23T06:27:25.365Z,45.83
2022-12-23T06:29:51.942Z,39.22
2022-12-23T06:32:18.709Z,38.33
2022-12-23T06:34:45.399Z,39.25
2022-12-23T06:37:11.986Z,41.58
2022-12-23T06:39:38.539Z,32.63
2022-12-23T06:42:05.170Z,29.90
2022-12-23T06:44:31.777Z,38.42
2022-12-23T06:46:58.390Z,36.53
2022-12-23T06:49:24.971Z,35.67
2022-12-23T06:51:51.499Z,44.85
2022-12-23T06:54:18.094Z,34.65
2022-12-23T06:56:44.797Z,32.40
2022-12-23T06:59:11.298Z,27.52
2022-12-23T07:01:38.054Z,29.23
2022-12-23T07:04:04.810Z,24.85
2022-12-23T07:06:31.408Z,27.42
2022-12-23T07:08:57.999Z,25.00
2022-12-23T07:11:24.515Z,27.58
2022-12-23T07:13:51.030Z,27.52
2022-12-23T07:16:17.666Z,24.55
2022-12-23T07:18:44.534Z,22.40
2022-12-23T07:21:21.393Z,26.45
2022-12-23T07:23:53.213Z,29.33
2022-12-23T07:26:19.766Z,23.25
2022-12-23T07:28:48.238Z,25.63
2022-12-23T07:31:15.349Z,21.90
2022-12-23T07:33:42.161Z,20.10
2022-12-23T07:36:09.156Z,27.45
2022-12-23T07:38:35.746Z,22.90
2022-12-23T07:41:02.270Z,21.77
2022-12-23T07:43:28.956Z,20.92
2022-12-23T07:45:59.996Z,21.67
2022-12-23T07:48:27.717Z,37.03
2022-12-23T07:51:03.439Z,27.63
2022-12-23T07:53:30.343Z,21.70
2022-12-23T07:55:57.166Z,19.38
2022-12-23T07:58:24.160Z,18.77
2022-12-23T08:00:50.759Z,22.55
2022-12-23T08:03:17.902Z,27.00
2022-12-23T08:05:44.598Z,28.08
2022-12-23T08:08:11.180Z,29.40
2022-12-23T08:10:41.491Z,31.27
2022-12-23T08:13:11.269Z,26.75
2022-12-23T08:15:37.827Z,21.20
2022-12-23T08:18:04.649Z,24.08
2022-12-23T08:20:31.138Z,21.58
2022-12-23T08:22:57.660Z,19.67
2022-12-23T08:25:24.391Z,19.85
2022-12-23T08:27:51.460Z,19.48
2022-12-23T08:30:19.459Z,21.25
2022-12-23T08:32:46.608Z,18.40
2022-12-23T08:35:13.133Z,20.40
2022-12-23T08:37:39.666Z,18.90
2022-12-23T08:40:07.127Z,22.88
2022-12-23T08:42:33.666Z,22.20
2022-12-23T08:45:01.049Z,26.70
2022-12-23T08:47:27.628Z,28.50
2022-12-23T08:49:54.126Z,36.03
2022-12-23T08:52:20.761Z,33.63
2022-12-23T08:54:47.505Z,35.83
2022-12-23T08:57:16.566Z,47.67
2022-12-23T08:59:43.354Z,41.92
2022-12-23T09:02:11.935Z,38.25
2022-12-23T09:04:38.700Z,37.80
2022-12-23T09:07:06.035Z,39.08
2022-12-23T09:09:32.722Z,41.28
2022-12-23T09:11:59.437Z,34.50
2022-12-23T09:14:26.075Z,42.30
2022-12-23T09:16:52.702Z,39.20
2022-12-23T09:19:19.404Z,40.95
2022-12-23T09:21:45.994Z,39.63
2022-12-23T09:24:12.701Z,37.38
2022-12-23T09:26:39.321Z,35.83
2022-12-23T09:29:06.072Z,32.58
2022-12-23T09:31:37.395Z,29.35
2022-12-23T09:34:05.274Z,30.35
2022-12-23T09:36:32.351Z,34.30
2022-12-23T09:38:59.372Z,30.52
2022-12-23T09:41:54.912Z,30.00
2022-12-23T09:44:56.936Z,31.42
2022-12-23T09:47:26.733Z,24.33
2022-12-23T09:49:59.221Z,24.27
2022-12-23T09:52:36.503Z,23.58
2022-12-23T09:55:03.471Z,24.52
2022-12-23T09:57:40.722Z,25.85
2022-12-23T10:00:15.505Z,22.08
2022-12-23T10:02:55.030Z,20.92
2022-12-23T10:05:26.726Z,21.33
2022-12-23T10:08:03.841Z,21.65
2022-12-23T10:10:36.892Z,20.45
2022-12-23T10:13:06.403Z,21.67
2022-12-23T10:15:47.878Z,22.65
2022-12-23T10:18:27.787Z,25.20
2022-12-23T10:21:01.668Z,24.63
2022-12-23T10:23:39.998Z,24.88
2022-12-23T10:26:39.940Z,30.83
2022-12-23T10:29:19.824Z,30.80
2022-12-23T10:31:56.804Z,38.13
2022-12-23T10:34:43.667Z,42.10
2022-12-23T10:37:34.158Z,43.90
2022-12-23T10:40:27.610Z,38.90
2022-12-23T10:42:54.177Z,36.42
2022-12-23T10:45:26.424Z,30.90
2022-12-23T10:48:13.543Z,28.70
2022-12-23T10:51:03.590Z,32.33
2022-12-23T10:53:50.620Z,31.45
2022-12-23T10:56:18.654Z,33.00
2022-12-23T10:58:50.016Z,38.78
2022-12-23T11:01:26.144Z,33.58
2022-12-23T11:04:01.733Z,36.45
2022-12-23T11:06:36.622Z,36.38
2022-12-23T11:09:05.202Z,38.53
2022-12-23T11:12:01.283Z,38.47
2022-12-23T11:14:43.400Z,37.90
2022-12-23T11:17:19.086Z,33.60
2022-12-23T11:19:45.668Z,35.33
2022-12-23T11:22:25.426Z,31.98
2022-12-23T11:24:52.033Z,36.10
2022-12-23T11:27:19.720Z,35.05
2022-12-23T11:29:55.463Z,35.90
2022-12-23T11:32:26.275Z,33.13
2022-12-23T11:34:54.160Z,34.65
2022-12-23T11:37:46.285Z,36.65
2022-12-23T11:40:24.228Z,38.25
2022-12-23T11:42:57.220Z,36.25
2022-12-23T11:45:27.101Z,33.90
2022-12-23T11:47:54.261Z,41.58
2022-12-23T11:50:21.469Z,36.42
2022-12-23T11:52:57.330Z,38.65
2022-12-23T11:55:29.920Z,36.15
2022-12-23T11:57:56.810Z,35.10
2022-12-23T12:00:28.877Z,34.47
2022-12-23T12:03:04.619Z,43.80
2022-12-23T12:05:37.001Z,34.45
2022-12-23T12:08:16.206Z,49.25
2022-12-23T12:10:43.129Z,41.83
2022-12-23T12:13:29.520Z,47.60
2022-12-23T12:16:21.560Z,34.95
2022-12-23T12:18:55.119Z,38.47
2022-12-23T12:21:26.302Z,42.05
2022-12-23T12:24:20.571Z,43.88
2022-12-23T12:26:52.476Z,38.75
2022-12-23T12:29:39.884Z,44.20
2022-12-23T12:32:16.758Z,46.40
2022-12-23T12:34:56.615Z,43.55
2022-12-23T12:37:31.969Z,38.47
2022-12-23T12:40:23.496Z,41.20
2022-12-23T12:42:57.455Z,44.97
2022-12-23T12:45:32.338Z,41.07
2022-12-23T12:48:23.982Z,44.88
2022-12-23T12:51:05.828Z,39.72
2022-12-23T12:53:33.725Z,41.58
2022-12-23T12:56:18.989Z,38.78
2022-12-23T12:58:47.510Z,38.33
2022-12-23T13:01:25.547Z,44.05
2022-12-23T13:04:13.043Z,42.20
2022-12-23T13:06:56.555Z,37.90
2022-12-23T13:09:55.308Z,38.22
2022-12-23T13:12:56.895Z,39.67
2022-12-23T13:15:35.610Z,39.70
2022-12-23T13:18:28.901Z,36.22
2022-12-23T13:21:22.090Z,42.42
2022-12-23T13:24:10.002Z,35.47
2022-12-23T13:27:02.865Z,38.05
2022-12-23T13:29:49.445Z,35.70
2022-12-23T13:32:45.849Z,35.85
2022-12-23T13:35:24.179Z,38.30
2022-12-23T13:38:11.800Z,31.65
2022-12-23T13:40:45.251Z,36.47
2022-12-23T13:43:18.095Z,35.25
2022-12-23T13:45:46.928Z,35.58
2022-12-23T13:48:45.129Z,39.58
2022-12-23T13:51:24.027Z,37.25
2022-12-23T13:54:21.970Z,32.42
2022-12-23T13:57:15.522Z,39.17
2022-12-23T13:59:58.413Z,36.50
2022-12-23T14:02:37.174Z,33.33
2022-12-23T14:05:09.306Z,35.53
2022-12-23T14:07:38.488Z,32.60
2022-12-23T14:10:20.126Z,33.88
2022-12-23T14:12:47.615Z,32.38
2022-12-23T14:15:31.808Z,30.55
2022-12-23T14:18:36.786Z,30.77
2022-12-23T14:21:19.097Z,34.03
2022-12-23T14:24:04.297Z,29.45
2022-12-23T14:26:50.039Z,32.92
2022-12-23T14:29:39.885Z,33.60
2022-12-23T14:32:20.064Z,30.65
2022-12-23T14:35:16.792Z,28.55
2022-12-23T14:38:03.721Z,30.95
2022-12-23T14:40:39.547Z,32.15
2022-12-23T14:43:45.040Z,32.60
2022-12-23T14:46:36.188Z,26.00
2022-12-23T14:49:37.055Z,28.65
2022-12-23T14:51:51.046Z,28.50
2022-12-23T14:54:38.698Z,27.35
2022-12-23T14:57:17.724Z,29.92
2022-12-23T14:59:51.598Z,32.05
2022-12-23T15:02:31.153Z,34.47
2022-12-23T15:04:59.269Z,38.60
2022-12-23T15:07:41.925Z,35.63
2022-12-23T15:10:17.272Z,32.65
2022-12-23T15:12:48.179Z,48.33
2022-12-23T15:15:16.497Z,37.50
2022-12-23T15:17:43.353Z,37.08
2022-12-23T15:20:12.258Z,35.10
2022-12-23T15:22:45.132Z,37.10
2022-12-23T15:25:31.872Z,35.65
2022-12-23T15:28:02.159Z,31.90
2022-12-23T15:30:48.146Z,33.38
2022-12-23T15:34:02.226Z,30.20
2022-12-23T15:36:09.960Z,33.05
2022-12-23T15:38:38.850Z,35.55
2022-12-23T15:41:14.686Z,34.63
2022-12-23T15:43:42.239Z,34.38
2022-12-23T15:46:21.977Z,33.13
2022-12-23T15:48:52.129Z,33.08
2022-12-23T15:52:05.726Z,33.63
2022-12-23T15:54:27.008Z,33.45
2022-12-23T15:56:54.699Z,30.27
2022-12-23T15:59:25.377Z,29.15
2022-12-23T16:01:53.037Z,27.02
2022-12-23T16:04:25.449Z,32.53
2022-12-23T16:06:53.354Z,29.77
2022-12-23T16:09:19.926Z,32.65
2022-12-23T16:12:01.932Z,29.55
2022-12-23T16:14:31.101Z,30.50
2022-12-23T16:17:13.135Z,30.60
2022-12-23T16:19:40.804Z,29.05
2022-12-23T16:22:13.325Z,32.08
2022-12-23T16:25:22.428Z,34.70
2022-12-23T16:27:56.176Z,35.90
2022-12-23T16:30:32.778Z,39.35
2022-12-23T16:33:21.301Z,44.63
2022-12-23T16:35:48.131Z,35.88
2022-12-23T16:38:20.673Z,38.97
2022-12-23T16:40:52.488Z,46.50
2022-12-23T16:43:20.539Z,49.00
2022-12-23T16:45:51.485Z,51.67
2022-12-23T16:48:30.822Z,44.88
2022-12-23T16:50:58.184Z,39.58
2022-12-23T16:53:24.891Z,38.00
2022-12-23T16:55:56.815Z,36.63
2022-12-23T16:58:26.973Z,44.42
2022-12-23T17:00:53.676Z,42.97
2022-12-23T17:03:21.052Z,38.90
2022-12-23T17:05:48.501Z,35.80
2022-12-23T17:08:15.621Z,45.78
2022-12-23T17:10:44.774Z,42.17
2022-12-23T17:13:17.786Z,37.22
2022-12-23T17:15:45.139Z,39.47
2022-12-23T17:18:14.001Z,38.25
2022-12-23T17:20:41.909Z,43.15
2022-12-23T17:23:34.421Z,46.63
2022-12-23T17:26:01.058Z,42.55
2022-12-23T17:28:30.973Z,41.00
2022-12-23T17:30:58.902Z,45.22
2022-12-23T17:33:29.519Z,43.50
2022-12-23T17:35:56.248Z,64.75
2022-12-23T17:38:23.327Z,53.28
2022-12-23T17:40:50.659Z,42.33
2022-12-23T17:43:18.578Z,46.30
2022-12-23T17:45:47.136Z,40.30
2022-12-23T17:48:20.182Z,39.22
2022-12-23T17:50:48.149Z,42.85
2022-12-23T17:53:16.846Z,42.33
2022-12-23T17:55:43.779Z,40.35
2022-12-23T17:58:10.536Z,40.75
2022-12-23T18:00:38.721Z,47.42
2022-12-23T18:03:06.800Z,47.13
2022-12-23T18:05:35.031Z,43.35
2022-12-23T18:08:03.017Z,39.33
2022-12-23T18:10:39.270Z,42.60
2022-12-23T18:13:15.670Z,42.45
2022-12-23T18:15:44.339Z,42.17
2022-12-23T18:18:28.101Z,43.25
2022-12-23T18:20:58.318Z,41.67
2022-12-23T18:23:27.549Z,42.28
2022-12-23T18:25:56.035Z,36.25
2022-12-23T18:28:23.018Z,45.72
2022-12-23T18:30:50.691Z,40.95
2022-12-23T18:33:18.018Z,39.95
2022-12-23T18:35:46.716Z,39.90
2022-12-23T18:38:14.037Z,46.60
2022-12-23T18:40:41.215Z,43.70
2022-12-23T18:43:17.774Z,42.47
2022-12-23T18:45:49.230Z,41.85
2022-12-23T18:48:19.201Z,44.28
2022-12-23T18:50:46.945Z,41.33
2022-12-23T18:53:23.783Z,44.60
2022-12-23T18:55:52.640Z,47.85
2022-12-23T18:58:19.696Z,46.22
2022-12-23T19:00:47.082Z,40.90
2022-12-23T19:03:26.466Z,44.88
2022-12-23T19:05:54.107Z,39.80
2022-12-23T19:08:26.753Z,44.63
2022-12-23T19:10:55.104Z,40.17
2022-12-23T19:13:21.840Z,45.85
2022-12-23T19:15:48.913Z,40.40
2022-12-23T19:18:21.383Z,41.47
2022-12-23T19:20:48.779Z,38.42
2022-12-23T19:23:15.716Z,38.83
2022-12-23T19:25:49.136Z,42.92
2022-12-23T19:28:21.989Z,38.35
2022-12-23T19:30:48.942Z,45.08
2022-12-23T19:33:15.732Z,40.67
2022-12-23T19:35:43.205Z,50.38
2022-12-23T19:38:10.783Z,38.05
2022-12-23T19:40:37.387Z,45.85
2022-12-23T19:43:04.486Z,38.28
2022-12-23T19:45:31.080Z,42.03
2022-12-23T19:47:57.846Z,40.58
2022-12-23T19:50:24.476Z,36.15
2022-12-23T19:52:51.871Z,42.47
2022-12-23T19:55:18.575Z,45.00
2022-12-23T19:57:45.207Z,45.55
2022-12-23T20:00:12.524Z,35.85
2022-12-23T20:02:39.256Z,42.35
2022-12-23T20:05:06.230Z,35.35
2022-12-23T20:07:34.688Z,44.72
2022-12-23T20:10:01.273Z,51.03
2022-12-23T20:12:27.992Z,43.17
2022-12-23T20:14:54.614Z,42.28
2022-12-23T20:17:21.154Z,40.90
2022-12-23T20:19:47.659Z,41.05
2022-12-23T20:22:14.449Z,42.10
2022-12-23T20:24:41.167Z,41.30
2022-12-23T20:27:11.379Z,43.28
2022-12-23T20:29:38.507Z,38.95
2022-12-23T20:32:05.330Z,42.20
2022-12-23T20:34:38.369Z,43.20
2022-12-23T20:37:06.216Z,42.03
2022-12-23T20:39:33.041Z,40.47
2022-12-23T20:41:59.807Z,38.30
2022-12-23T20:44:35.823Z,36.33
2022-12-23T20:47:03.922Z,47.15
2022-12-23T20:49:30.655Z,49.95
2022-12-23T20:51:57.791Z,37.25
2022-12-23T20:54:31.644Z,30.92
2022-12-23T20:56:59.607Z,28.25
2022-12-23T20:59:26.286Z,30.38
2022-12-23T21:01:53.027Z,23.08
2022-12-23T21:04:20.641Z,29.00
2022-12-23T21:06:47.308Z,32.72
2022-12-23T21:09:14.998Z,31.50
2022-12-23T21:11:44.271Z,25.73
2022-12-23T21:14:11.055Z,28.95
2022-12-23T21:16:38.474Z,25.45
2022-12-23T21:19:07.278Z,23.63
2022-12-23T21:21:33.957Z,22.67
2022-12-23T21:24:04.695Z,29.58
2022-12-23T21:26:33.943Z,27.42
2022-12-23T21:29:01.458Z,29.42
2022-12-23T21:31:30.039Z,24.48
2022-12-23T21:33:58.161Z,25.92
2022-12-23T21:36:27.425Z,28.90
2022-12-23T21:38:54.180Z,21.88
2022-12-23T21:41:23.843Z,23.92
2022-12-23T21:43:50.519Z,22.52
2022-12-23T21:46:20.165Z,20.80
2022-12-23T21:48:47.911Z,21.75
2022-12-23T21:51:17.852Z,17.83
2022-12-23T21:53:46.663Z,18.65
2022-12-23T21:56:16.297Z,21.90
2022-12-23T21:58:43.878Z,23.63
2022-12-23T22:01:15.078Z,20.45
2022-12-23T22:03:43.405Z,21.83
2022-12-23T22:06:18.720Z,20.10
2022-12-23T22:08:45.681Z,17.80
2022-12-23T22:11:14.680Z,16.33
2022-12-23T22:13:42.723Z,17.25
2022-12-23T22:16:11.615Z,19.05
2022-12-23T22:18:39.305Z,20.70
2022-12-23T22:21:12.710Z,19.63
2022-12-23T22:23:40.148Z,20.27
2022-12-23T22:26:08.464Z,17.13
2022-12-23T22:28:36.796Z,15.43
2022-12-23T22:31:03.511Z,16.80
2022-12-23T22:33:31.645Z,14.98
2022-12-23T22:35:58.508Z,16.08
2022-12-23T22:38:25.083Z,15.68
2022-12-23T22:40:52.404Z,14.20
2022-12-23T22:43:19.730Z,16.50
2022-12-23T22:45:46.711Z,13.93
2022-12-23T22:48:13.435Z,12.57
2022-12-23T22:50:40.125Z,13.75
2022-12-23T22:53:06.719Z,13.77
2022-12-23T22:55:34.749Z,12.88
2022-12-23T22:58:01.295Z,12.70
2022-12-23T23:00:27.817Z,10.63
2022-12-23T23:02:54.382Z,11.57
2022-12-23T23:05:21.459Z,11.32
2022-12-23T23:07:48.087Z,10.65
2022-12-23T23:10:15.705Z,12.07
2022-12-23T23:12:44.224Z,12.43
2022-12-23T23:15:11.126Z,11.65
2022-12-23T23:17:37.805Z,12.65
2022-12-23T23:20:04.717Z,11.32
2022-12-23T23:22:31.258Z,9.82
2022-12-23T23:24:57.802Z,11.40
2022-12-23T23:27:24.418Z,11.10
2022-12-23T23:29:50.970Z,11.20
2022-12-23T23:32:17.560Z,11.38
2022-12-23T23:34:44.285Z,11.68
2022-12-23T23:37:10.774Z,10.65
2022-12-23T23:39:49.333Z,13.40
2022-12-23T23:42:17.853Z,11.13
2022-12-23T23:44:44.409Z,11.32
2022-12-23T23:47:10.953Z,11.52
2022-12-23T23:49:37.486Z,11.82
2022-12-23T23:52:04.264Z,10.85
2022-12-23T23:54:30.817Z,11.43
2022-12-23T23:56:57.298Z,13.68
2022-12-23T23:59:23.850Z,10.88
